Flight Track Log - Related Links

Times and Time Zones

All times are in EDT time to prevent confusion due to time zone crossing. See the SRY650 flight status page for this flight to view local times or setup timezone preferences in your user account.

Time Position Orientation Groundspeed Altitude Reporting Facility
EDT Latitude Longitude Course Direction KTS MPH feet Rate Location/Type
Sun 12:11:03 PM 40.7667 -73.4167 210° Southwest 159 183 2,100  Level New York TRACON
Sun 12:12:03 PM 40.8167 -73.4500 333° Northwest 218 251 3,700 1,650 Climbing New York TRACON
Sun 12:13:03 PM 40.7833 -73.5167 237° Southwest 214 246 5,400 1,150 Climbing New York TRACON
Sun 12:14:03 PM 40.7333 -73.5833 225° Southwest 243 280 6,000 300 Climbing New York TRACON
Sun 12:15:03 PM 40.7000 -73.6667 242° Southwest 271 312 6,000  Level New York TRACON
Sun 12:16:00 PM 40.5786 -73.7962 210° Southwest  Level FlightAware Approximate
Sun 12:16:03 PM 40.6500 -73.7500 232° Southwest 278 320 6,000  Level New York TRACON
Sun 12:17:03 PM 40.5833 -73.8000 210° Southwest 279 321 6,000 -163 Level New York TRACON
Sun 12:19:00 PM 40.4871 -73.8725 210° Southwest  Level FlightAware Approximate
Sun 12:26:00 PM 40.1382 -74.1226 201° Southwest  Level FlightAware Approximate
Sun 12:27:00 PM 40.0851 -74.1491 201° Southwest  Level FlightAware Approximate
Sun 12:28:00 PM 40.0284 -74.1524 182° South  Level FlightAware Approximate
Sun 12:28:18 PM 39.8092 -74.1681 182° South 263 303 4,000  Level Washington Center
Sun 12:29:00 PM 39.9716 -74.1549 182° South  Level FlightAware Approximate
Sun 12:30:00 PM 39.9147 -74.1573 182° South  Level FlightAware Approximate
Sun 12:30:00 PM 39.7322 -74.2581 232° Southwest  Level Estimated
Sun 12:31:00 PM 39.8579 -74.1598 182° South  Level FlightAware Approximate
Sun 12:32:00 PM 39.8010 -74.1623 182° South  Level FlightAware Approximate
Sun 12:32:18 PM 39.6033 -74.3983 232° Southwest 252 290 4,000  Level Washington Center
Sun 12:33:00 PM 39.7442 -74.1647 182° South  Level FlightAware Approximate
Sun 12:34:00 PM 39.5282 -74.4907 232° Southwest  Level Estimated
Sun 12:36:17 PM 39.6061 -74.7136 232° Southwest 224 258 1,900  Level Washington Center
Sun 12:37:00 PM 39.4500 -74.5667 232° Southwest  Level FlightAware Approximate
Sun 12:41:00 PM 39.4500 -74.5667 232° Southwest  Level FlightAware Approximate

Login

Don't have an account? Register now (free) for customized features, flight alerts, and more!